東京/羽田 の空港の天気 - METARとTAF

東京国際空港 ( RJTT / HND ) - 東京都大田区
飛行場実況気象(Metar)
観測時間08/17 12:00 JST (08/17 03:00 UTC)
風向・風速北北東 5m/s
視程10km以上
天気現象
少しの雲 雲底高度 460m
全天の8割程度の雲 雲底高度 1070m
気温27℃
湿度79%
気圧1009hPa
METARRJTT 170300Z 02009KT 9999 FEW015 BKN035 27/23 Q1009 NOSIG RMK 1CU015 7SC035 A2981
過去の天気等 Google飛行場航空写真 Wunderground天気予報

過去48時間のMETAR

飛行場予報(TAF)
発表時間: 8/17 08:08 JST (8/16 23:08 UTC)
予報対象時間: 17日9時 JST ~ 18日15時 JST
風向・風速北北東 6m/s
視程10km以上
少しの雲 雲底高度 610m
全天の8割程度の雲 雲底高度 910m
17日12時 JST ~ 17日14時 JST に徐々に
風向・風速東 4m/s
17日16時 JST ~ 17日18時 JST に徐々に
風向・風速南東 5m/s
18日0時 JST ~ 18日6時 JST に一時的に
少しの雲 雲底高度 150m
全天の8割程度の雲 雲底高度 240m
18日12時 JST ~ 18日15時 JST に一時的に
視程4,000m
天気現象弱い雷雨 もや
少しの雲 雲底高度 460m
全天の8割程度の雲 雲底高度 610m
少しの積乱雲 雲底高度 610m
TAF RJTT 162308Z 1700/1806 02012KT 9999 FEW020 BKN030
BECMG 1703/1705 08008KT
BECMG 1707/1709 14010KT
TEMPO 1715/1721 FEW005 BKN008
TEMPO 1803/1806 4000 -TSRA BR FEW015 BKN020 FEW020CB
日本の空港のMETAR・TAFへのリンク

RJTT 東京国際空港
RJAA 新東京国際空港
RJBB 関西国際空港
RJOO 大阪空港
RJGG 中部国際空港
RJCC 新千歳空港
RJFF 福岡空港
ROAH 那覇空港


RJEC 旭川空港
RJCH 函館空港
RJCK 釧路空港
RJCM 女満別空港
RJCB 帯広空港
RJSA 青森空港
RJSS 仙台空港
RJSK 秋田空港
RJSF 福島空港
RJAH 茨城空港
RJSN 新潟空港
RJNT 富山空港
RJNK 小松飛行場
RJNS 静岡空港
RJOH 美保飛行場
RJOC 出雲空港
RJOB 岡山空港
RJOA 広島空港
RJOI 岩国飛行場
RJOT 高松空港
RJOM 松山空港
RJOK 高知空港
RJFR 北九州空港
RJFT 熊本空港
RJFU 長崎空港
RJFS 佐賀空港
RJFO 大分空港
RJFM 宮崎空港
RJFK 鹿児島空港
ROIG 石垣島空港
RJTY 横田飛行場
ROTM 普天間飛行場
RODN 嘉手納飛行場